AirNav   Everest Fuels
 
 1407 users online  

TN61 Ranger Heliport
Bartlett, Tennessee, USA

GOING TO BARTLETT?


FAA INFORMATION EFFECTIVE 10 OCTOBER 2019

Location

FAA Identifier: TN61
Lat/Long: 35-12-06.3180N 089-52-06.3100W
35-12.105300N 089-52.105167W
35.2017550,-89.8684194
(estimated)
Elevation: 300 ft. / 91 m (estimated)
Variation: 02E (1985)
From city: 3 miles NE of BARTLETT, TN
Time zone: UTC -5 (UTC -6 during Standard Time)
Zip code: 38134

Heliport Operations

Heliport use: Private use. Permission required prior to landing
Activation date: 09/1979
Control tower: no
ARTCC: MEMPHIS CENTER
FSS: JACKSON FLIGHT SERVICE STATION
Attendance: MON-FRI 0800-1600
Wind indicator: no
Segmented circle: no

Heliport Communications

WX AWOS-A at 2M8 (6 nm NW): 122.8 ((901) 873-0903)
WX AWOS-A at M01 (9 nm W): 122.7 ((901) 354-9296)
WX AWOS-3 at NQA (9 nm N): 118.925 (901-873-3630)
WX ASOS at MEM (11 nm SW): 127.75 (901-332-3679)
WX AWOS-3 at OLV (14 nm S): 119.925 (662-893-5906)
WX ASOS at AWM (18 nm W): 118.175 (870-733-9987)

Nearby radio navigation aids

VOR radial/distance  VOR name  Freq  Var
MEMr026/12.5MEMPHIS VORTAC117.5001E
GQEr102/31.1GILMORE VOR/DME113.0004E
HLIr322/31.7HOLLY SPRINGS VORTAC112.4003E

Heliport Services

Fuel available: A

Runway Information

Helipad H1

Dimensions: 603 x 452 ft. / 184 x 138 m
Surface: turf
Latitude: 35-12.105300N
Longitude: 089-52.105167W
Elevation: 300.0 ft.
Traffic pattern: leftleft

Heliport Ownership and Management from official FAA records

Ownership: Privately-owned
Owner: RANGER TOOL CO
5786 FERGUSON
BARTLETT, TN 38134
Phone 901-386-4514
Manager: JERRY W. DAVIS
5786 FERGUSON
BARTLETT, TN 38134
Phone 901-386-4514

Heliport Operational Statistics

Aircraft based on the field: 1
Helicopters: 1
    

Additional Remarks

A52-H1 PLINE SOUTH OF HELIPORT; BLDG NORTH OF HELIPORT.
FOR CD CTC MEMPHIS APCH AT 901-842-8457.

Instrument Procedures

There are no published instrument procedures at TN61.

Some nearby airports with instrument procedures:

2M8 - Charles W Baker Airport (6 nm NW)
M01 - General Dewitt Spain Airport (9 nm W)
KNQA - Millington-Memphis Airport (9 nm N)
KMEM - Memphis International Airport (11 nm SW)
KOLV - Olive Branch Airport (14 nm S)
KAWM - West Memphis Municipal Airport (18 nm W)
 
Loc | Ops | Rwys | IFR | FBO | Links
Com | Nav | Svcs | Stats | Notes
Area around TN61 (Ranger Heliport)
 
Road maps at: MapQuest Bing Google
 
Aerial photo
No photo
 
Sectional chart

 
Airport distance calculator
Flying to Ranger Heliport? Find the distance to fly.

From to TN61

Sunrise and sunset
Times for 17-Oct-2019
 Local
(UTC-5)
 Zulu
(UTC)
Morning civil twilight06:4311:43
Sunrise07:0812:08
Sunset18:2123:21
Evening civil twilight18:4723:47

Current date and time
Zulu (UTC)  17-Oct-2019 14:48:28
Local (UTC-5)  17-Oct-2019 09:48:28
 
METAR
KNQA 
9nm N 
171350Z 01006KT 10SM CLR 09/06 A3010
KMEM 
10nm SW 
171354Z 08004KT 10SM FEW250 10/05 A3011 RMK AO2 SLP197 T01000050
KOLV 
14nm S 
171350Z 00000KT 10SM FEW150 10/06 A3012
KAWM 
18nm W 
171353Z AUTO 07005KT CLR 11/07 A3011 RMK AO2 SLP195 T01060067 $
TAF
KMEM 
10nm SW 
171120Z 1712/1818 06006KT P6SM FEW250 FM171700 36006KT P6SM SCT250 FM180200 08004KT P6SM BKN250 FM181500 11007KT P6SM SCT250
NOTAMs
Click for the latest NOTAMs
NOTAMs are issued by the DoD/FAA and will open in a separate window not controlled by AirNav.

 

 
 

Would you like to see your business listed on this page?

 If your business provides an interesting product or service to pilots, flight crews, aircraft, or users of the Ranger Heliport, you should consider listing it here.  To start the listing process, click on the button below
 
Add a business
 

Other Pages about Ranger Heliport

Update a link
 
Copyright © AirNav, LLC. All rights reserved. Privacy Policy  Contact